Flight Track Log - Related Links

Times and Time Zones

All times are in EDT time to prevent confusion due to time zone crossing. See the NKS298 flight status page for this flight to view local times or setup timezone preferences in your user account.

Time Position Orientation Groundspeed Altitude Reporting Facility
EDT Latitude Longitude Course Direction KTS MPH feet Rate Location/Type
Mon 05:15:37 AM 36.0760 -115.1280 270° West 88 101  Level FlightAware ADS-B
Mon 05:15:57 AM 36.0760 -115.1420 270° West 160 184 3,733 Level FlightAware ADS-B
Mon 05:16:22 AM 36.0760 -115.1640 270° West 160 184 2,800 4,533 Climbing FlightAware ADS-B
Mon 05:16:42 AM 36.0760 -115.1850 270° West 178 205 3,400 1,333 Climbing FlightAware ADS-B
Mon 05:16:58 AM 36.0760 -115.2020 270° West 196 226 3,600 857 Climbing FlightAware ADS-B
Mon 05:17:10 AM 36.0760 -115.2160 270° West 212 244 3,800 1,125 Climbing FlightAware ADS-B
Mon 05:17:30 AM 36.0730 -115.2410 262° West 235 270 4,200 1,286 Climbing FlightAware ADS-B
Mon 05:17:38 AM 36.0690 -115.2500 241° Southwest 244 281 4,400 1,500 Climbing FlightAware ADS-B
Mon 05:17:46 AM 36.0620 -115.2580 223° Southwest 251 289 4,600 2,000 Climbing FlightAware ADS-B
Mon 05:17:50 AM 36.0580 -115.2610 211° Southwest 258 297 4,800 2,000 Climbing FlightAware ADS-B
Mon 05:17:58 AM 36.0480 -115.2660 202° Southwest 267 307 5,000 2,483 Climbing FlightAware ADS-B
Mon 05:18:19 AM 36.0240 -115.2770 200° South 274 315 6,000 2,833 Climbing FlightAware ADS-B
Mon 05:18:34 AM 36.0050 -115.2840 197° South 275 316 6,700 3,070 Climbing FlightAware ADS-B
Mon 05:19:02 AM 35.9730 -115.2710 162° South 275 316 8,200 3,000 Climbing FlightAware ADS-B
Mon 05:19:10 AM 35.9660 -115.2610 131° Southeast 283 326 8,500 2,000 Climbing FlightAware ADS-B
Mon 05:19:14 AM 35.9630 -115.2550 122° Southeast 287 330 8,600 2,500 Climbing FlightAware ADS-B
Mon 05:19:22 AM 35.9600 -115.2430 107° East 293 337 9,000 2,667 Climbing FlightAware ADS-B
Mon 05:19:32 AM 35.9590 -115.2250 94° East 297 342 9,400 2,429 Climbing FlightAware ADS-B
Mon 05:20:04 AM 35.9580 -115.1710 91° East 311 358 10,700 2,776 Climbing FlightAware ADS-B
Mon 05:20:39 AM 35.9570 -115.1070 91° East 314 361 12,500 3,041 Climbing FlightAware ADS-B
Mon 05:21:17 AM 35.9560 -115.0400 91° East 315 362 14,400 2,609 Climbing FlightAware ADS-B
Mon 05:21:48 AM 35.9540 -114.9840 93° East 327 376 15,500 2,190 Climbing FlightAware ADS-B
Mon 05:22:20 AM 35.9530 -114.9230 91° East 336 387 16,700 2,261 Climbing FlightAware ADS-B
Mon 05:22:57 AM 35.9510 -114.8530 92° East 342 394 18,100 2,189 Climbing FlightAware ADS-B
Mon 05:23:34 AM 35.9490 -114.7780 92° East 352 405 19,400 2,000 Climbing FlightAware ADS-B
Mon 05:24:12 AM 35.9470 -114.7050 92° East 354 407 20,600 1,800 Climbing FlightAware ADS-B
Mon 05:24:44 AM 35.9460 -114.6360 91° East 365 420 21,500 1,676 Climbing FlightAware ADS-B
Mon 05:25:20 AM 35.9430 -114.5620 93° East 372 428 22,500 1,750 Climbing FlightAware ADS-B
Mon 05:25:56 AM 35.9410 -114.4840 92° East 370 426 23,600 1,676 Climbing FlightAware ADS-B
Mon 05:26:28 AM 35.9400 -114.4200 91° East 375 432 24,400 1,200 Climbing FlightAware ADS-B
Mon 05:27:06 AM 35.9370 -114.3330 92° East 392 451 25,000 1,054 Climbing FlightAware ADS-B
Mon 05:27:42 AM 35.9460 -114.2530 82° East 402 463 25,700 1,612 Climbing FlightAware ADS-B
Mon 05:28:13 AM 35.9680 -114.1900 67° East 397 457 26,800 1,701 Climbing FlightAware ADS-B
Mon 05:28:49 AM 35.9960 -114.1140 65° Northeast 403 464 27,600 1,371 Climbing FlightAware ADS-B
Mon 05:29:23 AM 36.0240 -114.0410 65° Northeast 407 468 28,400 1,200 Climbing FlightAware ADS-B
Mon 05:29:59 AM 36.0500 -113.9640 67° East 412 474 29,000 941 Climbing FlightAware ADS-B
Mon 05:30:14 AM 36.0530 -113.9340 83° East 413 475 29,200 577 Climbing FlightAware ADS-B
Mon 05:30:51 AM 36.0340 -113.8460 105° East 422 486 29,500 441 Climbing FlightAware ADS-B
Mon 05:31:22 AM 36.0130 -113.7730 110° East 437 503 29,700 448 Climbing FlightAware ADS-B
Mon 05:31:58 AM 35.9900 -113.6860 108° East 452 520 30,000 338 Climbing FlightAware ADS-B
Mon 05:32:33 AM 35.9670 -113.6010 108° East 468 539 30,100 411 Climbing FlightAware ADS-B
Mon 05:33:11 AM 35.9410 -113.5020 108° East 477 549 30,500 1,029 Climbing FlightAware ADS-B
Mon 05:33:43 AM 35.9180 -113.4190 109° East 474 545 31,300 1,235 Climbing FlightAware ADS-B
Mon 05:34:19 AM 35.8930 -113.3280 109° East 473 544 31,900 1,083 Climbing FlightAware ADS-B
Mon 05:34:55 AM 35.8680 -113.2360 109° East 472 543 32,600 1,147 Climbing FlightAware ADS-B
Mon 05:35:27 AM 35.8460 -113.1540 108° East 472 543 33,200 1,235 Climbing FlightAware ADS-B
Mon 05:36:03 AM 35.8210 -113.0640 109° East 470 541 34,000 1,333 Climbing FlightAware ADS-B
Mon 05:36:39 AM 35.7950 -112.9720 109° East 467 537 34,800 1,333 Climbing FlightAware ADS-B
Mon 05:37:15 AM 35.7710 -112.8830 108° East 463 533 35,600 1,147 Climbing FlightAware ADS-B
Mon 05:37:47 AM 35.7480 -112.8010 109° East 464 534 36,100 1,217 Climbing FlightAware ADS-B
Mon 05:38:24 AM 35.7240 -112.7160 109° East 452 520 37,000 794 Climbing FlightAware ADS-B
Mon 05:38:55 AM 35.7030 -112.6390 109° East 453 521 37,000  Level FlightAware ADS-B
Mon 05:39:34 AM 35.6750 -112.5390 109° East 462 532 37,000  Level FlightAware ADS-B
Mon 05:40:07 AM 35.6540 -112.4640 109° East 465 535 37,000  Level FlightAware ADS-B
Mon 05:40:46 AM 35.6250 -112.3620 109° East 461 531 37,000  Level FlightAware ADS-B
Mon 05:41:18 AM 35.6120 -112.2790 101° East 459 528 37,000  Level FlightAware ADS-B
Mon 05:41:54 AM 35.5970 -112.1860 101° East 457 526 37,000  Level FlightAware ADS-B
Mon 05:42:30 AM 35.5820 -112.0960 102° East 456 525 37,000  Level FlightAware ADS-B
Mon 05:42:58 AM 35.5710 -112.0240 101° East 456 525 37,000  Level FlightAware ADS-B
Mon 05:43:34 AM 35.5560 -111.9330 101° East 457 526 37,000  Level FlightAware ADS-B
Mon 05:44:10 AM 35.5410 -111.8420 101° East 458 527 37,000  Level FlightAware ADS-B
Mon 05:44:43 AM 35.5280 -111.7580 101° East 460 529 37,000  Level FlightAware ADS-B
Mon 05:45:08 AM 35.5170 -111.6920 102° East 462 532 37,000  Level FlightAware ADS-B
Mon 05:45:44 AM 35.5020 -111.6010 101° East 465 535 37,000  Level FlightAware ADS-B
Mon 05:46:20 AM 35.4860 -111.5080 102° East 467 537 37,000  Level FlightAware ADS-B
Mon 05:46:56 AM 35.4710 -111.4150 101° East 468 539 37,000  Level FlightAware ADS-B
Mon 05:47:32 AM 35.4550 -111.3210 102° East 469 540 37,000  Level FlightAware ADS-B
Mon 05:48:04 AM 35.4420 -111.2390 101° East 468 539 37,000  Level FlightAware ADS-B
Mon 05:48:41 AM 35.4250 -111.1430 102° East 468 539 37,000  Level FlightAware ADS-B
Mon 05:49:12 AM 35.4120 -111.0620 101° East 470 541 37,000  Level FlightAware ADS-B
Mon 05:49:50 AM 35.3950 -110.9660 102° East 471 542 37,000  Level FlightAware ADS-B
Mon 05:50:26 AM 35.3790 -110.8700 102° East 470 541 37,000  Level FlightAware ADS-B
Mon 05:51:02 AM 35.3630 -110.7760 102° East 469 540 37,000  Level FlightAware ADS-B
Mon 05:51:35 AM 35.3480 -110.6910 102° East 469 540 37,000  Level FlightAware ADS-B
Mon 05:52:11 AM 35.3310 -110.5960 102° East 468 539 37,000  Level FlightAware ADS-B
Mon 05:52:44 AM 35.3170 -110.5130 102° East 467 537 37,000  Level FlightAware ADS-B
Mon 05:53:19 AM 35.3010 -110.4220 102° East 465 535 37,000  Level FlightAware ADS-B
Mon 05:53:57 AM 35.2840 -110.3220 102° East 465 535 37,000  Level FlightAware ADS-B
Mon 05:54:33 AM 35.2680 -110.2300 102° East 465 535 37,000  Level FlightAware ADS-B
Mon 05:55:05 AM 35.2530 -110.1500 103° East 465 535 37,000  Level FlightAware ADS-B
Mon 05:55:41 AM 35.2370 -110.0550 102° East 466 536 37,000  Level FlightAware ADS-B
Mon 05:56:17 AM 35.2200 -109.9630 103° East 467 537 37,000  Level FlightAware ADS-B
Mon 05:56:53 AM 35.2040 -109.8720 102° East 469 540 37,000  Level FlightAware ADS-B
Mon 05:57:25 AM 35.1880 -109.7880 103° East 469 540 37,000  Level FlightAware ADS-B
Mon 05:58:01 AM 35.1710 -109.6950 103° East 469 540 37,000  Level FlightAware ADS-B
Mon 05:58:37 AM 35.1550 -109.6030 102° East 469 540 37,000  Level FlightAware ADS-B
Mon 05:59:09 AM 35.1390 -109.5200 103° East 469 540 37,000  Level FlightAware ADS-B
Mon 05:59:45 AM 35.1220 -109.4260 102° East 469 540 37,000  Level FlightAware ADS-B
Mon 06:00:17 AM 35.1070 -109.3440 103° East 469 540 37,000  Level FlightAware ADS-B
Mon 06:00:57 AM 35.0880 -109.2430 103° East 469 540 37,000  Level FlightAware ADS-B
Mon 06:01:29 AM 35.0730 -109.1590 102° East 467 537 37,000  Level FlightAware ADS-B
Mon 06:02:08 AM 35.0540 -109.0610 103° East 465 535 37,000  Level FlightAware ADS-B
Mon 06:02:40 AM 35.0390 -108.9790 103° East 464 534 37,000  Level FlightAware ADS-B
Mon 06:03:09 AM 35.0250 -108.9060 103° East 463 533 37,000  Level FlightAware ADS-B
Mon 06:03:51 AM 35.0040 -108.7970 103° East 464 534 37,000  Level FlightAware ADS-B
Mon 06:04:39 AM 34.9830 -108.6860 103° East 464 534 37,000  Level FlightAware ADS-B
Mon 06:05:13 AM 34.9650 -108.5900 103° East 465 535 37,000  Level FlightAware ADS-B
Mon 06:05:55 AM 34.9470 -108.4950 103° East 466 536 37,000  Level FlightAware ADS-B
Mon 06:06:31 AM 34.9320 -108.4160 103° East 466 536 37,000  Level FlightAware ADS-B
Mon 06:07:07 AM 34.9170 -108.3380 103° East 466 536 37,000  Level FlightAware ADS-B
Mon 06:07:55 AM 34.8870 -108.1880 104° East 470 541 37,000  Level FlightAware ADS-B
Mon 06:08:32 AM 34.8720 -108.1060 103° East 470 541 37,000  Level FlightAware ADS-B
Mon 06:09:08 AM 34.8570 -108.0270 103° East 470 541 37,000  Level FlightAware ADS-B
Mon 06:09:44 AM 34.8420 -107.9480 103° East 470 541 37,000  Level FlightAware ADS-B
Mon 06:10:20 AM 34.8110 -107.8020 104° East 468 539 37,000  Level FlightAware ADS-B
Mon 06:10:55 AM 34.7930 -107.7140 104° East 467 537 37,000  Level FlightAware ADS-B
Mon 06:11:22 AM 34.7790 -107.6420 103° East 466 536 37,000  Level FlightAware ADS-B
Mon 06:11:58 AM 34.7610 -107.5530 104° East 466 536 37,000  Level FlightAware ADS-B
Mon 06:12:36 AM 34.7410 -107.4540 104° East 466 536 37,000  Level FlightAware ADS-B
Mon 06:13:24 AM 34.7170 -107.3360 104° East 466 536 37,000  Level FlightAware ADS-B
Mon 06:14:02 AM 34.6970 -107.2370 104° East 467 537 37,000  Level FlightAware ADS-B
Mon 06:14:32 AM 34.6820 -107.1650 104° East 468 539 37,000  Level FlightAware ADS-B
Mon 06:15:10 AM 34.6610 -107.0630 104° East 469 540 37,000  Level FlightAware ADS-B
Mon 06:15:52 AM 34.6400 -106.9600 104° East 470 541 37,000  Level FlightAware ADS-B
Mon 06:16:28 AM 34.6200 -106.8650 104° East 470 541 37,000  Level FlightAware ADS-B
Mon 06:17:08 AM 34.5990 -106.7640 104° East 469 540 37,000  Level FlightAware ADS-B
Mon 06:17:40 AM 34.5810 -106.6800 105° East 469 540 37,000  Level FlightAware ADS-B
Mon 06:18:16 AM 34.5620 -106.5890 104° East 468 539 37,000  Level FlightAware ADS-B
Mon 06:18:54 AM 34.5420 -106.4930 104° East 466 536 37,000  Level FlightAware ADS-B
Mon 06:19:30 AM 34.5230 -106.4020 104° East 465 535 37,000  Level FlightAware ADS-B
Mon 06:20:02 AM 34.5060 -106.3220 104° East 464 534 37,000  Level FlightAware ADS-B
Mon 06:20:38 AM 34.4870 -106.2350 105° East 463 533 37,000  Level FlightAware ADS-B
Mon 06:21:11 AM 34.4710 -106.1580 104° East 463 533 37,000  Level FlightAware ADS-B
Mon 06:21:46 AM 34.4560 -106.0830 104° East 463 533 37,000  Level FlightAware ADS-B
Mon 06:22:22 AM 34.4400 -106.0060 104° East 463 533 37,000  Level FlightAware ADS-B
Mon 06:22:59 AM 34.4240 -105.9270 104° East 463 533 37,000  Level FlightAware ADS-B
Mon 06:23:35 AM 34.4080 -105.8490 104° East 463 533 37,000  Level FlightAware ADS-B
Mon 06:24:11 AM 34.3920 -105.7720 104° East 463 533 37,000  Level FlightAware ADS-B
Mon 06:24:47 AM 34.3760 -105.6950 104° East 463 533 37,000  Level FlightAware ADS-B
Mon 06:25:23 AM 34.3600 -105.6180 104° East 463 533 37,000  Level FlightAware ADS-B
Mon 06:25:59 AM 34.3440 -105.5410 104° East 463 533 37,000  Level FlightAware ADS-B
Mon 06:26:35 AM 34.3280 -105.4640 104° East 463 533 37,000  Level FlightAware ADS-B
Mon 06:27:11 AM 34.3130 -105.3870 103° East 463 533 37,000  Level FlightAware ADS-B
Mon 06:27:47 AM 34.2970 -105.3100 104° East 463 533 37,000  Level FlightAware ADS-B
Mon 06:28:23 AM 34.2810 -105.2330 104° East 463 533 37,000  Level FlightAware ADS-B
Mon 06:28:59 AM 34.2650 -105.1560 104° East 463 533 37,000  Level FlightAware ADS-B
Mon 06:29:35 AM 34.2490 -105.0790 104° East 463 533 37,000  Level FlightAware ADS-B
Mon 06:30:11 AM 34.2330 -105.0020 104° East 463 533 37,000  Level FlightAware ADS-B
Mon 06:31:19 AM 33.9119 -104.7272 104° East 467 537 37,000  Level Albuquerque Center
Mon 06:32:19 AM 33.8467 -104.5919 120° Southeast 468 539 37,000  Level Albuquerque Center
Mon 06:33:19 AM 33.7806 -104.4564 120° Southeast 470 541 37,000  Level Albuquerque Center
Mon 06:34:19 AM 33.7156 -104.3217 120° Southeast 467 537 37,000  Level Albuquerque Center
Mon 06:35:19 AM 33.6494 -104.1861 120° Southeast 468 539 37,000  Level Albuquerque Center
Mon 06:36:19 AM 33.5839 -104.0519 120° Southeast 467 537 37,000  Level Albuquerque Center
Mon 06:37:19 AM 33.5189 -103.9178 120° Southeast 466 536 37,000  Level Albuquerque Center
Mon 06:38:19 AM 33.4525 -103.7853 121° Southeast 465 535 37,000  Level Albuquerque Center
Mon 06:39:19 AM 33.3894 -103.6561 120° Southeast 462 532 37,000  Level Albuquerque Center
Mon 06:40:20 AM 33.3250 -103.5244 120° Southeast 461 531 37,000  Level Albuquerque Center
Mon 06:41:20 AM 33.2597 -103.3917 120° Southeast 462 532 37,000  Level Albuquerque Center
Mon 06:42:20 AM 33.1922 -103.2631 122° Southeast 460 529 37,000  Level Albuquerque Center
Mon 06:43:20 AM 33.1256 -103.1325 121° Southeast 460 529 37,000  Level Albuquerque Center
Mon 06:43:54 AM 33.0861 -103.0561 122° Southeast 468 539 37,000  Level Fort Worth Center
Mon 06:44:54 AM 33.0211 -102.9231 120° Southeast 468 539 37,000  Level Fort Worth Center
Mon 06:45:54 AM 32.9539 -102.7928 122° Southeast 468 539 37,000  Level Fort Worth Center
Mon 06:46:54 AM 32.8903 -102.6678 121° Southeast 468 539 37,000  Level Fort Worth Center
Mon 06:47:54 AM 32.8247 -102.5353 120° Southeast 463 533 37,000  Level Fort Worth Center
Mon 06:48:54 AM 32.7667 -102.4208 121° Southeast 463 533 37,000  Level Fort Worth Center
Mon 06:49:54 AM 32.6989 -102.2864 121° Southeast 463 533 37,000  Level Fort Worth Center
Mon 06:50:54 AM 32.6286 -102.1592 123° Southeast 463 533 37,000  Level Fort Worth Center
Mon 06:51:54 AM 32.5603 -102.0322 123° Southeast 463 533 37,000  Level Fort Worth Center
Mon 06:52:54 AM 32.4942 -101.9033 121° Southeast 463 533 37,000  Level Fort Worth Center
Mon 06:53:54 AM 32.4275 -101.7769 122° Southeast 463 533 37,000  Level Fort Worth Center
Mon 06:54:54 AM 32.3589 -101.6508 123° Southeast 463 533 37,000  Level Fort Worth Center
Mon 06:55:54 AM 32.2964 -101.5225 120° Southeast 457 526 37,000  Level Fort Worth Center
Mon 06:56:54 AM 32.2272 -101.3989 123° Southeast 452 520 37,000 -50 Level Fort Worth Center
Mon 06:57:54 AM 32.1586 -101.2611 120° Southeast 447 514 36,900 -50 Descending Fort Worth Center
Mon 06:58:54 AM 32.0914 -101.1356 122° Southeast 447 514 36,900 50 Level Fort Worth Center
Mon 06:59:54 AM 32.0219 -101.0103 123° Southeast 447 514 37,000 50 Climbing Fort Worth Center
Mon 07:00:54 AM 31.9522 -100.8900 124° Southeast 447 514 37,000  Level Fort Worth Center
Mon 07:06:43 AM 31.5630 -100.1640 124° Southeast 454 522 37,000  Level FlightAware ADS-B
Mon 07:07:21 AM 31.5190 -100.0850 123° Southeast 455 524 37,000  Level FlightAware ADS-B
Mon 07:07:51 AM 31.4850 -100.0210 122° Southeast 455 524 37,000  Level FlightAware ADS-B
Mon 07:08:29 AM 31.4410 -99.9420 123° Southeast 455 524 37,000  Level FlightAware ADS-B
Mon 07:09:05 AM 31.4010 -99.8690 123° Southeast 456 525 37,000  Level FlightAware ADS-B
Mon 07:09:44 AM 31.3558 -99.7870 123° Southeast 456 525 37,000  Level FlightAware ADS-B
Mon 07:10:57 AM 31.2750 -99.6420 123° Southeast 452 520 37,000  Level FlightAware ADS-B
Mon 07:11:32 AM 31.2340 -99.5670 123° Southeast 452 520 37,000  Level FlightAware ADS-B
Mon 07:12:05 AM 31.2020 -99.5010 120° Southeast 447 514 37,000  Level FlightAware ADS-B
Mon 07:12:37 AM 31.1900 -99.4200 100° East 442 509 37,000  Level FlightAware ADS-B
Mon 07:13:15 AM 31.1810 -99.3290 97° East 444 511 37,000  Level FlightAware ADS-B
Mon 07:13:54 AM 31.1709 -99.2374 97° East 445 512 37,000  Level FlightAware ADS-B
Mon 07:14:37 AM 31.1602 -99.1351 97° East 446 513 37,000  Level FlightAware ADS-B
Mon 07:15:07 AM 31.1530 -99.0630 97° East 447 514 37,000  Level FlightAware ADS-B
Mon 07:15:22 AM 31.1488 -99.0265 98° East 447 514 37,000  Level FlightAware ADS-B
Mon 07:16:13 AM 31.1360 -98.9050 97° East 446 513 37,000  Level FlightAware ADS-B
Mon 07:16:53 AM 31.1260 -98.8110 97° East 446 513 37,000  Level FlightAware ADS-B
Mon 07:17:29 AM 31.1160 -98.7240 98° East 445 512 37,000  Level FlightAware ADS-B
Mon 07:18:01 AM 31.1080 -98.6490 97° East 443 510 37,000 -636 Level FlightAware ADS-B
Mon 07:18:35 AM 31.1000 -98.5720 97° East 442 509 36,300 -2,000 Descending FlightAware ADS-B
Mon 07:18:55 AM 31.0942 -98.5200 97° East 449 517 35,200 -2,943 Descending FlightAware ADS-B
Mon 07:19:28 AM 31.0858 -98.4418 97° East 451 519 33,700 -2,762 Descending FlightAware ADS-B
Mon 07:19:58 AM 31.0780 -98.3689 97° East 451 519 32,300 -2,586 Descending FlightAware ADS-B
Mon 07:20:26 AM 31.0705 -98.3019 97° East 451 519 31,200 -1,345 Descending FlightAware ADS-B
Mon 07:20:56 AM 31.0624 -98.2296 97° East 451 519 31,000 -200 Descending FlightAware ADS-B
Mon 07:21:26 AM 31.0543 -98.1571 97° East 451 519 31,000  Level FlightAware ADS-B
Mon 07:22:01 AM 31.0448 -98.0722 97° East 448 516 31,000  Level FlightAware ADS-B
Mon 07:22:07 AM 31.0432 -98.0580 97° East 449 517 31,000  Level FlightAware ADS-B
Mon 07:22:44 AM 31.0333 -97.9705 97° East 447 514 31,000  Level FlightAware ADS-B
Mon 07:23:13 AM 31.0254 -97.9013 98° East 448 516 31,000  Level FlightAware ADS-B
Mon 07:23:15 AM 31.0249 -97.8963 97° East 451 519 31,000  Level FlightAware ADS-B
Mon 07:23:51 AM 31.0149 -97.8100 98° East 450 518 31,000  Level FlightAware ADS-B
Mon 07:24:13 AM 31.0086 -97.7572 98° East 448 516 31,000  Level FlightAware ADS-B
Mon 07:24:22 AM 31.0063 -97.7376 98° East 436 502 31,000  Level FlightAware ADS-B
Mon 07:24:50 AM 30.9988 -97.6728 98° East 434 499 31,000  Level FlightAware ADS-B
Mon 07:24:52 AM 30.9983 -97.6682 97° East 434 499 31,000  Level FlightAware ADS-B
Mon 07:25:11 AM 30.9931 -97.6236 98° East 438 504 31,000  Level FlightAware ADS-B
Mon 07:25:20 AM 30.9895 -97.6028 101° East 440 506 31,000  Level FlightAware ADS-B
Mon 07:25:40 AM 30.9772 -97.5586 108° East 441 507 31,000  Level FlightAware ADS-B
Mon 07:25:54 AM 30.9671 -97.5262 110° East 441 507 31,000  Level FlightAware ADS-B
Mon 07:26:25 AM 30.9465 -97.4578 109° East 440 506 31,000  Level FlightAware ADS-B
Mon 07:26:55 AM 30.9264 -97.3906 109° East 440 506 31,000  Level FlightAware ADS-B
Mon 07:27:25 AM 30.9059 -97.3228 109° East 440 506 31,000 -395 Level FlightAware ADS-B
Mon 07:29:27 AM 30.8236 -97.0523 109° East 433 498 30,000 -750 Descending FlightAware ADS-B
Mon 07:29:57 AM 30.8035 -96.9870 110° East 423 487 29,100 -1,800 Descending FlightAware ADS-B
Mon 07:30:27 AM 30.7839 -96.9230 110° East 414 476 28,200 -1,770 Descending FlightAware ADS-B
Mon 07:30:58 AM 30.7646 -96.8601 110° East 405 466 27,300 -1,672 Descending FlightAware ADS-B
Mon 07:31:28 AM 30.7460 -96.7995 110° East 396 456 26,500 -1,700 Descending FlightAware ADS-B
Mon 07:31:58 AM 30.7275 -96.7396 110° East 388 447 25,600 -1,800 Descending FlightAware ADS-B
Mon 07:32:28 AM 30.7095 -96.6812 110° East 384 442 24,700 -1,780 Descending FlightAware ADS-B
Mon 07:33:29 AM 30.6736 -96.5655 110° East 374 430 22,900 -1,790 Descending FlightAware ADS-B
Mon 07:36:26 AM 30.5735 -96.2456 110° East 348 400 17,600 -1,691 Descending FlightAware ADS-B
Mon 07:38:27 AM 30.5080 -96.0371 110° East 348 400 14,500 -1,470 Descending FlightAware ADS-B
Mon 07:38:57 AM 30.4911 -95.9837 110° East 350 403 13,900 -1,475 Descending FlightAware ADS-B
Mon 07:39:28 AM 30.4742 -95.9301 110° East 344 396 13,000 -1,727 Descending FlightAware ADS-B
Mon 07:40:03 AM 30.4546 -95.8699 114° Southeast 337 388 12,000 -1,636 Descending FlightAware ADS-B
Mon 07:40:12 AM 30.4472 -95.8568 128° Southeast 336 387 11,800 -837 Descending FlightAware ADS-B
Mon 07:40:46 AM 30.4090 -95.8166 138° Southeast 333 383 11,400 -1,219 Descending FlightAware ADS-B
Mon 07:41:16 AM 30.3742 -95.7802 138° Southeast 329 379 10,500 -1,429 Descending FlightAware ADS-B
Mon 07:41:49 AM 30.3372 -95.7411 138° Southeast 326 375 9,900 -750 Descending FlightAware ADS-B
Mon 07:42:04 AM 30.3206 -95.7236 138° Southeast 323 372 9,900  Level FlightAware ADS-B
Mon 07:42:20 AM 30.3036 -95.7059 138° Southeast 323 372 9,900  Level FlightAware ADS-B
Mon 07:42:51 AM 30.2687 -95.6695 138° Southeast 320 368 9,900  Level FlightAware ADS-B
Mon 07:43:08 AM 30.2505 -95.6506 138° Southeast 321 369 9,900 -128 Level FlightAware ADS-B
Mon 07:44:25 AM 30.1672 -95.5639 138° Southeast 294 338 9,700 -588 Descending FlightAware ADS-B
Mon 07:44:50 AM 30.1414 -95.5371 138° Southeast 294 338 8,900 -1,714 Descending FlightAware ADS-B
Mon 07:45:00 AM 30.1319 -95.5276 139° Southeast 293 337 8,700 -1,364 Descending FlightAware ADS-B
Mon 07:45:12 AM 30.1193 -95.5145 138° Southeast 291 335 8,400 -1,500 Descending FlightAware ADS-B
Mon 07:45:24 AM 30.1101 -95.4997 119° Southeast 287 330 8,100 -1,600 Descending FlightAware ADS-B
Mon 07:45:27 AM 30.1084 -95.4951 113° Southeast 285 328 8,000 -1,714 Descending FlightAware ADS-B
Mon 07:45:31 AM 30.1070 -95.4899 107° East 284 327 7,900 -1,500 Descending FlightAware ADS-B
Mon 07:45:39 AM 30.1058 -95.4786 94° East 281 323 7,700 -1,636 Descending FlightAware ADS-B
Mon 07:45:42 AM 30.1058 -95.4740 90° East 280 322 7,600 -1,333 Descending FlightAware ADS-B
Mon 07:45:57 AM 30.1061 -95.4516 89° East 278 320 7,300 -1,385 Descending FlightAware ADS-B
Mon 07:46:08 AM 30.1063 -95.4351 89° East 278 320 7,000 -1,474 Descending FlightAware ADS-B
Mon 07:46:54 AM 30.1062 -95.3677 90° East 270 311 5,900 -1,400 Descending FlightAware ADS-B
Mon 07:47:08 AM 30.1061 -95.3480 90° East 268 308 5,600 -1,412 Descending FlightAware ADS-B
Mon 07:47:28 AM 30.1060 -95.3193 90° East 266 306 5,100 -1,371 Descending FlightAware ADS-B
Mon 07:47:43 AM 30.1061 -95.2981 90° East 262 302 4,800 -1,268 Descending FlightAware ADS-B
Mon 07:48:39 AM 30.1061 -95.2200 90° East 251 289 3,600 -1,200 Descending FlightAware ADS-B
Mon 07:48:48 AM 30.1047 -95.2094 104° East 245 282 3,500 -750 Descending FlightAware ADS-B
Mon 07:48:55 AM 30.1015 -95.2010 118° Southeast 240 276 3,400 -857 Descending FlightAware ADS-B
Mon 07:49:02 AM 30.0967 -95.1942 133° Southeast 235 270 3,300 -600 Descending FlightAware ADS-B
Mon 07:49:05 AM 30.0937 -95.1913 140° Southeast 234 269 3,300 -857 Level FlightAware ADS-B
Mon 07:49:09 AM 30.0905 -95.1891 149° Southeast 232 267 3,200 -750 Descending FlightAware ADS-B
Mon 07:49:13 AM 30.0868 -95.1872 156° South 230 265 3,200 -600 Level FlightAware ADS-B
Mon 07:49:19 AM 30.0807 -95.1852 168° South 227 261 3,100 -720 Descending FlightAware ADS-B
Mon 07:49:38 AM 30.0612 -95.1824 174° South 212 244 2,900 -769 Descending FlightAware ADS-B
Mon 07:49:58 AM 30.0425 -95.1809 177° South 194 223 2,600 -1,059 Descending FlightAware ADS-B
Mon 07:50:12 AM 30.0302 -95.1809 180° South 183 211 2,300 -857 Descending FlightAware ADS-B
Mon 07:50:47 AM 30.0008 -95.1853 212° Southwest 199 229 1,900 -615 Descending FlightAware ADS-B
Mon 07:50:51 AM 29.9984 -95.1880 224° Southwest 201 231 1,900  Level FlightAware ADS-B
Mon 07:50:59 AM 29.9949 -95.1958 243° Southwest 204 235 1,900  Level FlightAware ADS-B
Mon 07:51:04 AM 29.9940 -95.2013 259° West 201 231 1,900  Level FlightAware ADS-B
Mon 07:51:10 AM 29.9938 -95.2071 268° West 194 223 1,900 -522 Level FlightAware ADS-B
Mon 07:51:27 AM 29.9935 -95.2246 269° West 186 214 1,700 -800 Descending FlightAware ADS-B
Mon 07:51:40 AM 29.9935 -95.2370 270° West 177 204 1,500 -1,034 Descending FlightAware ADS-B
Mon 07:51:56 AM 29.9934 -95.2508 270° West 162 186 1,200 -889 Descending FlightAware ADS-B
Mon 07:52:07 AM 29.9934 -95.2604 270° West 150 173 1,100 -783 Descending FlightAware ADS-B
Mon 07:52:19 AM 29.9934 -95.2696 270° West 147 169 900 -828 Descending FlightAware ADS-B
Mon 07:52:36 AM 29.9934 -95.2824 270° West 144 166 700 -563 Descending FlightAware ADS-B
Mon 07:52:51 AM 29.9934 -95.2938 270° West 141 162 600 -522 Descending FlightAware ADS-B
Mon 07:52:59 AM 29.9934 -95.2999 270° West 141 162 500 -857 Descending FlightAware ADS-B
Mon 07:53:05 AM 29.9934 -95.3045 270° West 141 162 400 -923 Descending FlightAware ADS-B
Mon 07:53:12 AM 29.9934 -95.3095 270° West 140 161 300 -800 Descending FlightAware ADS-B
Mon 07:53:20 AM 29.9934 -95.3161 270° West 141 162 200 -750 Descending FlightAware ADS-B

Login

Don't have an account? Register now (free) for customized features, flight alerts, and more!